createdAt,value
2019-02-24T00:00:44.118Z,102699.81
2019-02-24T00:03:12.244Z,102701.80
2019-02-24T00:05:40.450Z,102706.44
2019-02-24T00:08:08.625Z,102701.63
2019-02-24T00:10:36.797Z,102694.70
2019-02-24T00:13:05.166Z,102697.44
2019-02-24T00:15:33.294Z,102688.98
2019-02-24T00:18:01.582Z,102690.91
2019-02-24T00:20:29.925Z,102689.39
2019-02-24T00:22:58.440Z,102692.66
2019-02-24T00:25:26.642Z,102688.66
2019-02-24T00:27:54.857Z,102688.12
2019-02-24T00:30:23.481Z,102681.20
2019-02-24T00:32:51.655Z,102677.39
2019-02-24T00:35:19.828Z,102671.95
2019-02-24T00:37:47.976Z,102665.00
2019-02-24T00:40:16.193Z,102669.27
2019-02-24T00:42:44.433Z,102662.20
2019-02-24T00:45:12.589Z,102661.31
2019-02-24T00:47:40.805Z,102659.06
2019-02-24T00:50:09.438Z,102651.55
2019-02-24T00:52:37.639Z,102651.72
2019-02-24T00:55:06.444Z,102647.77
2019-02-24T00:57:34.778Z,102651.50
2019-02-24T01:00:02.899Z,102649.55
2019-02-24T01:02:31.156Z,102646.50
2019-02-24T01:04:59.736Z,102644.20
2019-02-24T01:07:27.936Z,102650.39
2019-02-24T01:09:56.142Z,102650.98
2019-02-24T01:12:24.350Z,102647.26
2019-02-24T01:14:52.652Z,102641.66
2019-02-24T01:17:20.832Z,102639.68
2019-02-24T01:19:49.032Z,102637.36
2019-02-24T01:22:17.170Z,102641.95
2019-02-24T01:24:45.327Z,102639.44
2019-02-24T01:27:13.458Z,102643.52
2019-02-24T01:29:41.662Z,102636.13
2019-02-24T01:32:09.874Z,102645.88
2019-02-24T01:34:38.025Z,102643.09
2019-02-24T01:37:07.023Z,102640.93
2019-02-24T01:39:36.811Z,102637.77
2019-02-24T01:42:05.247Z,102643.25
2019-02-24T01:44:33.403Z,102639.95
2019-02-24T01:47:02.023Z,102636.41
2019-02-24T01:49:30.378Z,102622.56
2019-02-24T01:51:58.611Z,102627.88
2019-02-24T01:54:26.876Z,102626.63
2019-02-24T01:56:55.759Z,102625.19
2019-02-24T01:59:23.971Z,102620.30
2019-02-24T02:01:52.207Z,102624.08
2019-02-24T02:04:23.860Z,102629.84
2019-02-24T02:06:52.666Z,102627.80
2019-02-24T02:09:22.452Z,102625.70
2019-02-24T02:11:51.176Z,102628.86
2019-02-24T02:14:19.695Z,102626.11
2019-02-24T02:16:47.934Z,102626.25
2019-02-24T02:19:16.309Z,102616.82
2019-02-24T02:21:44.852Z,102621.22
2019-02-24T02:24:13.081Z,102613.81
2019-02-24T02:26:41.337Z,102623.11
2019-02-24T02:29:09.958Z,102622.69
2019-02-24T02:31:39.002Z,102616.30
2019-02-24T02:34:07.575Z,102614.28
2019-02-24T02:36:36.230Z,102611.05
2019-02-24T02:39:05.107Z,102599.33
2019-02-24T02:41:33.388Z,102609.40
2019-02-24T02:44:02.090Z,102611.38
2019-02-24T02:46:30.825Z,102615.55
2019-02-24T02:48:59.869Z,102611.62
2019-02-24T02:51:28.439Z,102605.84
2019-02-24T02:53:58.410Z,102606.36
2019-02-24T02:56:29.781Z,102604.48
2019-02-24T02:58:58.097Z,102599.45
2019-02-24T03:01:29.836Z,102600.02
2019-02-24T03:04:01.650Z,102610.34
2019-02-24T03:06:44.755Z,102603.69
2019-02-24T03:09:12.956Z,102615.78
2019-02-24T03:11:41.144Z,102610.17
2019-02-24T03:14:09.368Z,102604.66
2019-02-24T03:16:37.700Z,102602.93
2019-02-24T03:19:05.867Z,102606.88
2019-02-24T03:21:34.159Z,102607.85
2019-02-24T03:24:02.376Z,102601.32
2019-02-24T03:26:30.538Z,102596.01
2019-02-24T03:29:04.196Z,102598.33
2019-02-24T03:31:28.759Z,102598.72
2019-02-24T03:33:57.078Z,102595.17
2019-02-24T03:36:25.333Z,102592.91
2019-02-24T03:38:53.669Z,102587.33
2019-02-24T03:41:21.906Z,102591.11
2019-02-24T03:43:50.176Z,102591.02
2019-02-24T03:46:18.591Z,102594.22
2019-02-24T03:48:46.801Z,102588.16
2019-02-24T03:51:15.044Z,102590.46
2019-02-24T03:53:43.248Z,102587.66
2019-02-24T03:56:11.453Z,102581.72
2019-02-24T03:58:39.647Z,102579.89
2019-02-24T04:01:07.845Z,102590.55
2019-02-24T04:03:36.410Z,102589.50
2019-02-24T04:06:04.635Z,102586.70
2019-02-24T04:08:32.871Z,102596.78
2019-02-24T04:11:01.058Z,102592.95
2019-02-24T04:13:29.255Z,102601.94
2019-02-24T04:15:57.416Z,102594.16
2019-02-24T04:18:25.699Z,102599.66
2019-02-24T04:20:53.831Z,102602.78
2019-02-24T04:23:22.097Z,102595.10
2019-02-24T04:25:50.348Z,102593.37
2019-02-24T04:28:18.551Z,102593.89
2019-02-24T04:30:46.723Z,102592.83
2019-02-24T04:33:14.872Z,102589.09
2019-02-24T04:35:43.080Z,102592.48
2019-02-24T04:38:11.378Z,102602.66
2019-02-24T04:40:39.679Z,102608.15
2019-02-24T04:43:07.875Z,102602.45
2019-02-24T04:45:36.082Z,102600.65
2019-02-24T04:48:04.292Z,102602.61
2019-02-24T04:50:32.488Z,102599.17
2019-02-24T04:53:00.634Z,102591.00
2019-02-24T04:55:29.009Z,102583.09
2019-02-24T04:57:57.207Z,102578.41
2019-02-24T05:00:25.517Z,102589.59
2019-02-24T05:02:53.715Z,102590.05
2019-02-24T05:05:22.013Z,102586.84
2019-02-24T05:07:50.185Z,102588.17
2019-02-24T05:10:18.410Z,102587.88
2019-02-24T05:12:46.774Z,102590.06
2019-02-24T05:15:14.958Z,102597.62
2019-02-24T05:17:43.148Z,102606.91
2019-02-24T05:20:11.409Z,102600.97
2019-02-24T05:22:39.702Z,102601.31
2019-02-24T05:25:08.183Z,102594.25
2019-02-24T05:27:36.269Z,102595.23
2019-02-24T05:30:04.534Z,102598.42
2019-02-24T05:32:32.736Z,102606.80
2019-02-24T05:35:01.182Z,102607.86
2019-02-24T05:37:29.288Z,102607.86
2019-02-24T05:39:57.536Z,102610.75
2019-02-24T05:42:25.786Z,102606.41
2019-02-24T05:44:53.966Z,102607.38
2019-02-24T05:47:22.158Z,102611.48
2019-02-24T05:49:50.347Z,102611.80
2019-02-24T05:52:18.561Z,102624.03
2019-02-24T05:54:46.728Z,102621.25
2019-02-24T05:57:14.941Z,102624.25
2019-02-24T05:59:43.126Z,102624.93
2019-02-24T06:02:11.327Z,102618.84
2019-02-24T06:04:39.447Z,102623.52
2019-02-24T06:07:07.831Z,102624.58
2019-02-24T06:09:35.957Z,102625.25
2019-02-24T06:12:04.066Z,102625.56
2019-02-24T06:14:32.247Z,102628.36
2019-02-24T06:17:00.398Z,102622.12
2019-02-24T06:19:28.534Z,102626.47
2019-02-24T06:21:56.739Z,102625.90
2019-02-24T06:24:24.949Z,102631.25
2019-02-24T06:26:53.081Z,102632.22
2019-02-24T06:29:21.400Z,102634.84
2019-02-24T06:31:49.603Z,102638.11
2019-02-24T06:34:17.827Z,102640.51
2019-02-24T06:36:46.042Z,102644.02
2019-02-24T06:39:14.236Z,102646.97
2019-02-24T06:41:42.426Z,102641.23
2019-02-24T06:44:10.572Z,102652.14
2019-02-24T06:46:38.739Z,102648.69
2019-02-24T06:49:06.874Z,102654.52
2019-02-24T06:51:35.153Z,102662.64
2019-02-24T06:54:03.337Z,102656.24
2019-02-24T06:56:31.530Z,102659.44
2019-02-24T06:58:59.671Z,102662.64
2019-02-24T07:01:27.863Z,102659.69
2019-02-24T07:03:59.360Z,102655.61
2019-02-24T07:06:27.543Z,102662.61
2019-02-24T07:08:55.759Z,102664.67
2019-02-24T07:11:23.908Z,102665.48
2019-02-24T07:13:52.348Z,102659.47
2019-02-24T07:16:20.542Z,102654.81
2019-02-24T07:18:48.701Z,102653.87
2019-02-24T07:21:17.042Z,102650.53
2019-02-24T07:23:45.237Z,102652.09
2019-02-24T07:26:13.361Z,102655.34
2019-02-24T07:28:41.562Z,102656.00
2019-02-24T07:31:09.689Z,102659.19
2019-02-24T07:33:37.838Z,102660.08
2019-02-24T07:36:06.011Z,102655.29
2019-02-24T07:38:34.162Z,102647.59
2019-02-24T07:41:02.269Z,102642.27
2019-02-24T07:43:30.528Z,102653.02
2019-02-24T07:45:58.776Z,102647.59
2019-02-24T07:48:26.980Z,102648.13
2019-02-24T07:50:55.146Z,102644.88
2019-02-24T07:53:23.505Z,102641.84
2019-02-24T07:55:51.704Z,102634.00
2019-02-24T07:58:19.922Z,102636.23
2019-02-24T08:00:48.073Z,102628.97
2019-02-24T08:03:16.238Z,102625.12
2019-02-24T08:05:44.438Z,102621.22
2019-02-24T08:08:16.482Z,102620.45
2019-02-24T08:10:42.493Z,102631.80
2019-02-24T08:13:10.944Z,102635.05
2019-02-24T08:15:39.160Z,102636.55
2019-02-24T08:18:07.345Z,102631.53
2019-02-24T08:20:35.561Z,102622.23
2019-02-24T08:23:03.890Z,102617.68
2019-02-24T08:25:32.084Z,102619.71
2019-02-24T08:28:00.220Z,102628.14
2019-02-24T08:30:28.394Z,102623.19
2019-02-24T08:32:56.853Z,102624.95
2019-02-24T08:35:25.092Z,102628.33
2019-02-24T08:37:53.297Z,102640.02
2019-02-24T08:40:21.733Z,102634.78
2019-02-24T08:42:49.887Z,102638.20
2019-02-24T08:45:18.054Z,102633.45
2019-02-24T08:47:46.204Z,102635.00
2019-02-24T08:50:14.425Z,102641.70
2019-02-24T08:52:42.782Z,102647.63
2019-02-24T08:55:10.967Z,102643.07
2019-02-24T08:57:39.226Z,102647.41
2019-02-24T09:00:08.891Z,102649.67
2019-02-24T09:02:37.126Z,102656.62
2019-02-24T09:05:05.415Z,102656.80
2019-02-24T09:07:33.548Z,102654.80
2019-02-24T09:10:01.663Z,102662.35
2019-02-24T09:12:29.902Z,102663.80
2019-02-24T09:14:58.222Z,102668.25
2019-02-24T09:17:26.415Z,102669.18
2019-02-24T09:19:54.862Z,102667.22
2019-02-24T09:22:23.146Z,102665.62
2019-02-24T09:24:51.293Z,102671.95
2019-02-24T09:27:19.628Z,102677.77
2019-02-24T09:29:47.849Z,102673.23
2019-02-24T09:32:16.142Z,102675.13
2019-02-24T09:34:44.289Z,102689.19
2019-02-24T09:37:12.469Z,102688.73
2019-02-24T09:39:40.675Z,102692.03
2019-02-24T09:42:08.924Z,102686.81
2019-02-24T09:44:37.245Z,102256.27
2019-02-24T09:47:05.575Z,102687.09
2019-02-24T09:49:33.773Z,102679.34
2019-02-24T09:52:02.106Z,102679.86
2019-02-24T09:54:30.322Z,102676.73
2019-02-24T09:56:58.595Z,102683.45
2019-02-24T09:59:27.183Z,102679.47
2019-02-24T10:01:55.391Z,102674.10
2019-02-24T10:04:23.653Z,102672.28
2019-02-24T10:06:52.016Z,102675.80
2019-02-24T10:09:20.328Z,102673.50
2019-02-24T10:11:48.858Z,102681.42
2019-02-24T10:14:17.170Z,102679.20
2019-02-24T10:16:45.363Z,102677.23
2019-02-24T10:19:13.762Z,102671.73
2019-02-24T10:21:42.189Z,102672.17
2019-02-24T10:24:11.268Z,102668.74
2019-02-24T10:26:39.550Z,102667.92
2019-02-24T10:29:09.566Z,102663.77
2019-02-24T10:31:37.867Z,102669.31
2019-02-24T10:34:07.581Z,102664.63
2019-02-24T10:36:36.138Z,102661.83
2019-02-24T10:39:05.277Z,102663.22
2019-02-24T10:41:33.568Z,102665.41
2019-02-24T10:44:01.738Z,102662.27
2019-02-24T10:46:29.981Z,102658.45
2019-02-24T10:49:03.635Z,102659.95
2019-02-24T10:51:31.471Z,102652.81
2019-02-24T10:53:59.607Z,102642.79
2019-02-24T10:56:27.876Z,102637.53
2019-02-24T10:58:56.116Z,102643.48
2019-02-24T11:01:29.682Z,102639.84
2019-02-24T11:03:54.462Z,102636.03
2019-02-24T11:06:22.917Z,102642.84
2019-02-24T11:08:51.253Z,102640.55
2019-02-24T11:11:19.609Z,102635.67
2019-02-24T11:13:48.106Z,102645.34
2019-02-24T11:16:16.345Z,102642.72
2019-02-24T11:18:44.624Z,102638.45
2019-02-24T11:21:12.907Z,102633.84
2019-02-24T11:23:41.127Z,102639.71
2019-02-24T11:26:09.298Z,102643.25
2019-02-24T11:28:37.552Z,102638.88
2019-02-24T11:31:05.933Z,102641.20
2019-02-24T11:33:34.149Z,102625.27
2019-02-24T11:36:02.369Z,102628.02
2019-02-24T11:38:30.575Z,102618.97
2019-02-24T11:40:58.797Z,102625.63
2019-02-24T11:43:27.105Z,102614.48
2019-02-24T11:45:55.384Z,102619.00
2019-02-24T11:48:23.619Z,102612.63
2019-02-24T11:50:51.793Z,102614.55
2019-02-24T11:53:20.131Z,102604.27
2019-02-24T11:55:48.361Z,102610.58
2019-02-24T11:58:16.627Z,102602.28
2019-02-24T12:00:44.786Z,102605.02
2019-02-24T12:03:12.986Z,102599.84
2019-02-24T12:05:41.188Z,102601.13
2019-02-24T12:08:09.443Z,102608.20
2019-02-24T12:10:37.781Z,102611.22
2019-02-24T12:13:08.141Z,102619.69
2019-02-24T12:15:36.430Z,102618.14
2019-02-24T12:18:04.646Z,102623.33
2019-02-24T12:20:33.274Z,102622.33
2019-02-24T12:23:01.632Z,102617.18
2019-02-24T12:25:29.820Z,102624.47
2019-02-24T12:27:58.086Z,102623.42
2019-02-24T12:30:26.408Z,102622.85
2019-02-24T12:32:54.658Z,102629.95
2019-02-24T12:35:22.822Z,102629.55
2019-02-24T12:37:51.132Z,102626.48
2019-02-24T12:40:19.513Z,102611.47
2019-02-24T12:42:47.738Z,102613.23
2019-02-24T12:45:15.906Z,102620.05
2019-02-24T12:47:44.127Z,102621.52
2019-02-24T12:50:12.440Z,102615.16
2019-02-24T12:52:40.776Z,102610.83
2019-02-24T12:55:09.149Z,102599.66
2019-02-24T12:57:37.494Z,102593.03
2019-02-24T13:00:08.472Z,102595.41
2019-02-24T13:02:38.199Z,102592.42
2019-02-24T13:05:06.805Z,102590.48
2019-02-24T13:07:35.023Z,102597.95
2019-02-24T13:10:03.685Z,102596.74
2019-02-24T13:12:31.905Z,102592.61
2019-02-24T13:15:00.266Z,102594.42
2019-02-24T13:17:28.523Z,102601.41
2019-02-24T13:19:57.120Z,102589.16
2019-02-24T13:22:25.487Z,102590.77
2019-02-24T13:24:53.871Z,102585.91
2019-02-24T13:27:22.205Z,102585.39
2019-02-24T13:29:50.431Z,102589.16
2019-02-24T13:32:18.734Z,102592.13
2019-02-24T13:34:47.096Z,102588.73
2019-02-24T13:37:15.299Z,102591.09
2019-02-24T13:39:43.985Z,102592.16
2019-02-24T13:42:12.398Z,102584.16
2019-02-24T13:44:40.672Z,102586.09
2019-02-24T13:47:08.975Z,102584.06
2019-02-24T13:49:37.264Z,102583.44
2019-02-24T13:52:05.420Z,102582.98
2019-02-24T13:54:33.642Z,102572.26
2019-02-24T13:57:01.877Z,102575.02
2019-02-24T13:59:30.040Z,102581.00
2019-02-24T14:01:58.302Z,102578.70
2019-02-24T14:04:26.511Z,102574.23
2019-02-24T14:06:54.891Z,102569.91
2019-02-24T14:09:23.269Z,102571.61
2019-02-24T14:11:51.453Z,102568.63
2019-02-24T14:14:19.614Z,102575.16
2019-02-24T14:16:47.901Z,102576.53
2019-02-24T14:19:16.231Z,102565.77
2019-02-24T14:21:44.535Z,102566.44
2019-02-24T14:24:12.713Z,102569.84
2019-02-24T14:26:40.845Z,102571.59
2019-02-24T14:29:09.057Z,102568.87
2019-02-24T14:31:37.452Z,102575.09
2019-02-24T14:34:05.758Z,102575.83
2019-02-24T14:36:34.060Z,102571.09
2019-02-24T14:39:02.244Z,102573.05
2019-02-24T14:41:30.597Z,102569.03
2019-02-24T14:43:59.292Z,102564.77
2019-02-24T14:46:27.692Z,102563.52
2019-02-24T14:48:58.188Z,102560.30
2019-02-24T14:51:26.201Z,102555.95
2019-02-24T14:53:54.392Z,102551.75
2019-02-24T14:56:22.602Z,102552.29
2019-02-24T14:58:50.802Z,102564.13
2019-02-24T15:01:19.020Z,102563.30
2019-02-24T15:03:47.259Z,102555.60
2019-02-24T15:06:15.487Z,102555.78
2019-02-24T15:08:43.759Z,102551.70
2019-02-24T15:11:11.998Z,102546.25
2019-02-24T15:13:40.283Z,102537.98
2019-02-24T15:16:08.681Z,102548.50
2019-02-24T15:18:37.039Z,102555.78
2019-02-24T15:21:05.527Z,102558.80
2019-02-24T15:23:33.836Z,102562.13
2019-02-24T15:26:02.161Z,102557.27
2019-02-24T15:28:30.533Z,102560.56
2019-02-24T15:30:58.846Z,102552.63
2019-02-24T15:33:27.198Z,102551.30
2019-02-24T15:35:55.625Z,102555.56
2019-02-24T15:38:24.269Z,102555.56
2019-02-24T15:40:52.506Z,102557.09
2019-02-24T15:43:20.973Z,102562.45
2019-02-24T15:45:49.454Z,102576.30
2019-02-24T15:48:17.739Z,102576.30
2019-02-24T15:50:46.144Z,102567.31
2019-02-24T15:53:14.536Z,102568.76
2019-02-24T15:55:43.083Z,102568.00
2019-02-24T15:58:11.817Z,102570.16
2019-02-24T16:00:40.691Z,102566.05
2019-02-24T16:03:09.057Z,102570.00
2019-02-24T16:05:37.306Z,102577.56
2019-02-24T16:08:06.324Z,102576.26
2019-02-24T16:10:34.778Z,102576.70
2019-02-24T16:13:03.081Z,102579.16
2019-02-24T16:15:32.275Z,102582.88
2019-02-24T16:18:00.995Z,102454.59
2019-02-24T16:20:29.410Z,102572.41
2019-02-24T16:22:57.656Z,102573.08
2019-02-24T16:25:25.971Z,102571.79
2019-02-24T16:27:54.920Z,102572.07
2019-02-24T16:30:23.912Z,102575.38
2019-02-24T16:32:52.168Z,102575.79
2019-02-24T16:35:20.525Z,102570.98
2019-02-24T16:37:48.916Z,102574.38
2019-02-24T16:40:18.711Z,102574.89
2019-02-24T16:42:46.932Z,102572.80
2019-02-24T16:45:15.693Z,102580.98
2019-02-24T16:47:44.024Z,102585.28
2019-02-24T16:50:14.252Z,102593.66
2019-02-24T16:52:42.739Z,102592.19
2019-02-24T16:55:12.220Z,102595.59
2019-02-24T16:57:40.764Z,102594.22
2019-02-24T17:00:12.618Z,102607.72
2019-02-24T17:02:41.004Z,102612.56
2019-02-24T17:05:10.036Z,102608.17
2019-02-24T17:07:38.946Z,102611.39
2019-02-24T17:10:08.136Z,102613.27
2019-02-24T17:12:36.587Z,102611.90
2019-02-24T17:15:05.638Z,102607.92
2019-02-24T17:17:34.597Z,102608.84
2019-02-24T17:20:03.280Z,102603.95
2019-02-24T17:22:31.725Z,102601.28
2019-02-24T17:25:00.352Z,102605.31
2019-02-24T17:27:30.057Z,102601.73
2019-02-24T17:29:59.042Z,102599.53
2019-02-24T17:32:28.241Z,102613.23
2019-02-24T17:34:58.440Z,102613.28
2019-02-24T17:37:27.207Z,102614.65
2019-02-24T17:39:56.793Z,102618.64
2019-02-24T17:42:28.934Z,102619.03
2019-02-24T17:44:57.891Z,102615.89
2019-02-24T17:47:26.750Z,102622.08
2019-02-24T17:49:56.359Z,102616.70
2019-02-24T17:52:25.677Z,102618.40
2019-02-24T17:54:55.822Z,102632.62
2019-02-24T17:57:25.057Z,102631.19
2019-02-24T17:59:54.936Z,102629.69
2019-02-24T18:02:25.026Z,102634.03
2019-02-24T18:04:54.099Z,102638.83
2019-02-24T18:07:31.655Z,102643.69
2019-02-24T18:10:02.302Z,102634.81
2019-02-24T18:12:31.772Z,102634.70
2019-02-24T18:15:01.762Z,102641.73
2019-02-24T18:17:30.677Z,102139.42
2019-02-24T18:20:03.889Z,102640.68
2019-02-24T18:22:33.606Z,102644.08
2019-02-24T18:25:03.674Z,102643.89
2019-02-24T18:27:33.575Z,102641.02
2019-02-24T18:30:03.188Z,102637.57
2019-02-24T18:32:33.759Z,102644.52
2019-02-24T18:35:02.806Z,102638.65
2019-02-24T18:37:32.776Z,102645.09
2019-02-24T18:40:03.008Z,102642.39
2019-02-24T18:42:32.880Z,102629.92
2019-02-24T18:45:03.008Z,102624.80
2019-02-24T18:47:33.229Z,102630.73
2019-02-24T18:50:03.714Z,102633.91
2019-02-24T18:52:33.325Z,102622.78
2019-02-24T18:55:03.362Z,102618.23
2019-02-24T18:57:33.378Z,102627.09
2019-02-24T19:00:03.433Z,102628.58
2019-02-24T19:02:33.557Z,102621.73
2019-02-24T19:05:04.974Z,102621.84
2019-02-24T19:07:34.527Z,102562.16
2019-02-24T19:10:04.722Z,102618.75
2019-02-24T19:12:34.869Z,102622.17
2019-02-24T19:15:03.533Z,102626.96
2019-02-24T19:17:32.819Z,102619.33
2019-02-24T19:20:04.478Z,102618.31
2019-02-24T19:22:33.866Z,102617.66
2019-02-24T19:25:03.622Z,102622.40
2019-02-24T19:27:32.310Z,102621.47
2019-02-24T19:30:01.782Z,102610.25
2019-02-24T19:32:31.590Z,102621.58
2019-02-24T19:35:02.424Z,102621.87
2019-02-24T19:37:32.145Z,102622.22
2019-02-24T19:40:02.299Z,102619.02
2019-02-24T19:42:31.732Z,102624.91
2019-02-24T19:45:01.338Z,102418.66
2019-02-24T19:47:32.507Z,102623.44
2019-02-24T19:50:02.677Z,102621.39
2019-02-24T19:52:32.216Z,102614.93
2019-02-24T19:55:03.633Z,102610.10
2019-02-24T19:57:33.338Z,102610.41
2019-02-24T20:00:03.077Z,102609.11
2019-02-24T20:02:32.533Z,102609.11
2019-02-24T20:05:01.812Z,102616.56
2019-02-24T20:07:31.073Z,102615.29
2019-02-24T20:10:00.330Z,102617.13
2019-02-24T20:12:29.503Z,102618.83
2019-02-24T20:14:59.122Z,102621.83
2019-02-24T20:17:28.109Z,102625.51
2019-02-24T20:19:56.834Z,102629.47
2019-02-24T20:22:25.802Z,102633.52
2019-02-24T20:24:54.932Z,102638.64
2019-02-24T20:27:23.804Z,102644.64
2019-02-24T20:29:52.823Z,102641.54
2019-02-24T20:32:21.800Z,102643.56
2019-02-24T20:34:50.659Z,102646.11
2019-02-24T20:37:19.986Z,102643.83
2019-02-24T20:39:48.994Z,102649.77
2019-02-24T20:42:18.837Z,102648.30
2019-02-24T20:44:47.528Z,102658.02
2019-02-24T20:47:17.623Z,102662.70
2019-02-24T20:49:46.068Z,102653.27
2019-02-24T20:52:15.069Z,102648.70
2019-02-24T20:54:43.595Z,102657.31
2019-02-24T20:57:12.540Z,102658.78
2019-02-24T20:59:41.643Z,102649.74
2019-02-24T21:02:11.045Z,102655.45
2019-02-24T21:04:40.403Z,102652.39
2019-02-24T21:07:08.831Z,102662.02
2019-02-24T21:09:37.389Z,102663.21
2019-02-24T21:12:06.514Z,102651.20
2019-02-24T21:14:35.593Z,102658.30
2019-02-24T21:17:04.176Z,102648.28
2019-02-24T21:19:32.673Z,102655.03
2019-02-24T21:22:04.109Z,102657.48
2019-02-24T21:24:32.971Z,102653.99
2019-02-24T21:27:01.402Z,102664.09
2019-02-24T21:29:30.376Z,102665.65
2019-02-24T21:31:59.140Z,102668.59
2019-02-24T21:34:28.177Z,102671.75
2019-02-24T21:36:56.542Z,102670.41
2019-02-24T21:39:24.878Z,102669.23
2019-02-24T21:41:53.306Z,102677.02
2019-02-24T21:44:22.270Z,102675.47
2019-02-24T21:46:51.181Z,102667.25
2019-02-24T21:49:19.803Z,102673.56
2019-02-24T21:51:48.227Z,102664.58
2019-02-24T21:54:16.725Z,102674.02
2019-02-24T21:56:45.003Z,102670.87
2019-02-24T21:59:13.492Z,102674.56
2019-02-24T22:01:41.783Z,102670.05
2019-02-24T22:04:10.507Z,102676.12
2019-02-24T22:06:38.773Z,102680.86
2019-02-24T22:09:10.199Z,102680.96
2019-02-24T22:11:38.585Z,102681.77
2019-02-24T22:14:07.119Z,102683.44
2019-02-24T22:16:35.369Z,102688.86
2019-02-24T22:19:03.620Z,102684.09
2019-02-24T22:21:31.847Z,102684.28
2019-02-24T22:24:00.129Z,102686.84
2019-02-24T22:26:28.373Z,102690.22
2019-02-24T22:28:56.510Z,102690.13
2019-02-24T22:31:24.872Z,102699.29
2019-02-24T22:33:53.056Z,102685.84
2019-02-24T22:36:21.462Z,102684.69
2019-02-24T22:38:49.693Z,102691.14
2019-02-24T22:41:17.841Z,102697.85
2019-02-24T22:43:45.979Z,102696.39
2019-02-24T22:46:14.275Z,102703.16
2019-02-24T22:48:42.406Z,102705.42
2019-02-24T22:51:10.638Z,102712.48
2019-02-24T22:53:38.803Z,102715.67
2019-02-24T22:56:06.951Z,102701.32
2019-02-24T22:58:35.186Z,102701.55
2019-02-24T23:01:12.343Z,102699.11
2019-02-24T23:03:42.225Z,102695.14
2019-02-24T23:06:10.335Z,102701.52
2019-02-24T23:08:38.643Z,102699.88
2019-02-24T23:11:06.917Z,102706.87
2019-02-24T23:13:35.058Z,102697.81
2019-02-24T23:16:03.271Z,102706.66
2019-02-24T23:18:31.419Z,102696.21
2019-02-24T23:20:59.635Z,102696.18
2019-02-24T23:23:27.820Z,102697.17
2019-02-24T23:25:56.005Z,102699.02
2019-02-24T23:28:24.198Z,102699.20
2019-02-24T23:30:52.390Z,102701.52
2019-02-24T23:33:20.558Z,102698.27
2019-02-24T23:35:48.922Z,102701.84
2019-02-24T23:38:17.074Z,102698.73
2019-02-24T23:40:45.298Z,102694.52
2019-02-24T23:43:13.536Z,102694.92
2019-02-24T23:45:41.716Z,102696.34
2019-02-24T23:48:09.937Z,102696.06
2019-02-24T23:50:38.276Z,102697.13
2019-02-24T23:53:06.792Z,102695.06
2019-02-24T23:55:35.163Z,102696.84
2019-02-24T23:58:03.350Z,102699.13
